createdAt,value
2018-10-19T00:01:43.565Z,98792.00
2018-10-19T00:04:16.017Z,98783.00
2018-10-19T00:06:48.088Z,98783.00
2018-10-19T00:09:19.735Z,98784.00
2018-10-19T00:11:51.288Z,98788.00
2018-10-19T00:14:22.947Z,98786.00
2018-10-19T00:16:54.920Z,98785.00
2018-10-19T00:19:26.505Z,98783.00
2018-10-19T00:21:58.438Z,98779.00
2018-10-19T00:24:30.111Z,98782.00
2018-10-19T00:27:01.759Z,98784.00
2018-10-19T00:29:33.457Z,98788.00
2018-10-19T00:32:07.291Z,98787.00
2018-10-19T00:34:39.709Z,98785.00
2018-10-19T00:37:12.295Z,98781.00
2018-10-19T00:39:44.766Z,98776.00
2018-10-19T00:42:16.883Z,98768.00
2018-10-19T00:44:49.055Z,98771.00
2018-10-19T00:47:20.805Z,98764.00
2018-10-19T00:49:53.391Z,98771.00
2018-10-19T00:52:28.133Z,98774.00
2018-10-19T00:54:59.762Z,98775.00
2018-10-19T00:57:31.308Z,98775.00
2018-10-19T01:00:03.252Z,98769.00
2018-10-19T01:02:34.762Z,98767.00
2018-10-19T01:05:06.829Z,98764.00
2018-10-19T01:07:38.865Z,98768.00
2018-10-19T01:10:10.962Z,98770.00
2018-10-19T01:12:43.173Z,98767.00
2018-10-19T01:15:15.141Z,98769.00
2018-10-19T01:17:46.710Z,98770.00
2018-10-19T01:20:21.213Z,98769.00
2018-10-19T01:22:54.159Z,98784.00
2018-10-19T01:25:26.277Z,98787.00
2018-10-19T01:27:58.161Z,98788.00
2018-10-19T01:30:29.995Z,98790.00
2018-10-19T01:33:01.942Z,98785.00
2018-10-19T01:38:09.492Z,98790.00
2018-10-19T01:40:41.206Z,98797.00
2018-10-19T01:47:13.323Z,98795.00
2018-10-19T01:49:45.491Z,98789.00
2018-10-19T01:52:18.531Z,98796.00
2018-10-19T01:54:50.221Z,98799.00
2018-10-19T01:57:22.672Z,98805.00
2018-10-19T01:59:54.410Z,98800.00
2018-10-19T02:02:26.384Z,98801.00
2018-10-19T02:04:58.162Z,98806.00
2018-10-19T02:07:30.941Z,98807.00
2018-10-19T02:10:02.483Z,98814.00
2018-10-19T02:12:34.576Z,98813.00
2018-10-19T02:15:09.076Z,98813.00
2018-10-19T02:17:40.582Z,98814.00
2018-10-19T02:20:12.474Z,98814.00
2018-10-19T02:22:44.245Z,98806.00
2018-10-19T02:25:16.255Z,98804.00
2018-10-19T02:27:47.753Z,98808.00
2018-10-19T02:30:19.741Z,98812.00
2018-10-19T02:32:51.692Z,98815.00
2018-10-19T02:35:23.676Z,98809.00
2018-10-19T02:37:55.706Z,98817.00
2018-10-19T02:40:27.650Z,98818.00
2018-10-19T02:43:00.034Z,98816.00
2018-10-19T02:45:34.169Z,98817.00
2018-10-19T02:48:07.163Z,98816.00
2018-10-19T02:50:39.873Z,98818.00
2018-10-19T02:55:48.158Z,98822.00
2018-10-19T02:58:19.806Z,98824.00
2018-10-19T03:00:51.548Z,98830.00
2018-10-19T03:03:24.042Z,98826.00
2018-10-19T03:05:56.018Z,98823.00
2018-10-19T03:08:28.153Z,98830.00
2018-10-19T03:10:59.882Z,98822.00
2018-10-19T03:13:31.647Z,98822.00
2018-10-19T03:16:03.327Z,98824.00
2018-10-19T03:18:34.926Z,98823.00
2018-10-19T03:23:46.804Z,98818.00
2018-10-19T03:26:18.614Z,98818.00
2018-10-19T03:28:50.217Z,98816.00
2018-10-19T03:31:22.499Z,98817.00
2018-10-19T03:33:54.180Z,98818.00
2018-10-19T03:36:26.954Z,98811.00
2018-10-19T03:38:58.728Z,98820.00
2018-10-19T03:41:33.489Z,98821.00
2018-10-19T03:44:06.323Z,98823.00
2018-10-19T03:46:45.011Z,98821.00
2018-10-19T03:49:16.953Z,98829.00
2018-10-19T03:51:48.483Z,98828.00
2018-10-19T03:54:20.697Z,98825.00
2018-10-19T03:56:52.756Z,98826.00
2018-10-19T03:59:25.308Z,98831.00
2018-10-19T04:01:56.948Z,98827.00
2018-10-19T04:04:28.504Z,98828.00
2018-10-19T04:07:02.819Z,98822.00
2018-10-19T04:09:34.496Z,98816.00
2018-10-19T04:12:07.275Z,98817.00
2018-10-19T04:14:39.028Z,98822.00
2018-10-19T04:17:10.957Z,98831.00
2018-10-19T04:19:42.712Z,98826.00
2018-10-19T04:22:14.560Z,98829.00
2018-10-19T04:24:46.382Z,98823.00
2018-10-19T04:27:18.159Z,98825.00
2018-10-19T04:29:50.124Z,98825.00
2018-10-19T04:32:21.975Z,98825.00
2018-10-19T04:34:54.221Z,98826.00
2018-10-19T04:37:26.146Z,98842.00
2018-10-19T04:39:58.960Z,98836.00
2018-10-19T04:42:31.536Z,98833.00
2018-10-19T04:45:03.585Z,98834.00
2018-10-19T04:47:35.449Z,98835.00
2018-10-19T04:50:07.392Z,98848.00
2018-10-19T04:52:39.023Z,98851.00
2018-10-19T04:55:18.695Z,98848.00
2018-10-19T04:57:50.927Z,98851.00
2018-10-19T05:00:22.789Z,98854.00
2018-10-19T05:02:55.142Z,98857.00
2018-10-19T05:05:27.581Z,98854.00
2018-10-19T05:07:59.242Z,98855.00
2018-10-19T05:10:30.748Z,98855.00
2018-10-19T05:13:03.090Z,98862.00
2018-10-19T05:15:34.600Z,98867.00
2018-10-19T05:18:06.616Z,98868.00
2018-10-19T05:20:38.726Z,98873.00
2018-10-19T05:23:10.566Z,98880.00
2018-10-19T05:25:42.696Z,98882.00
2018-10-19T05:28:18.155Z,98881.00
2018-10-19T05:30:50.098Z,98885.00
2018-10-19T05:33:22.443Z,98886.00
2018-10-19T05:35:54.509Z,98892.00
2018-10-19T05:38:26.494Z,98887.00
2018-10-19T05:40:58.253Z,98890.00
2018-10-19T05:43:32.064Z,98896.00
2018-10-19T05:46:04.945Z,98890.00
2018-10-19T05:48:37.517Z,98893.00
2018-10-19T05:51:10.344Z,98898.00
2018-10-19T05:53:42.167Z,98893.00
2018-10-19T05:56:14.045Z,98894.00
2018-10-19T05:58:46.237Z,98903.00
2018-10-19T06:01:18.008Z,98904.00
2018-10-19T06:03:50.144Z,98898.00
2018-10-19T06:06:21.911Z,98908.00
2018-10-19T06:08:54.507Z,98906.00
2018-10-19T06:11:26.787Z,98922.00
2018-10-19T06:13:58.379Z,98917.00
2018-10-19T06:16:30.166Z,98917.00
2018-10-19T06:19:02.084Z,98915.00
2018-10-19T06:21:33.809Z,98911.00
2018-10-19T06:26:47.525Z,98913.00
2018-10-19T06:29:19.210Z,98912.00
2018-10-19T06:31:51.452Z,98931.00
2018-10-19T06:37:00.540Z,98925.00
2018-10-19T06:39:32.928Z,98923.00
2018-10-19T06:42:06.079Z,98927.00
2018-10-19T06:44:38.307Z,98921.00
2018-10-19T06:47:10.844Z,98921.00
2018-10-19T06:49:43.543Z,98920.00
2018-10-19T06:54:52.096Z,98929.00
2018-10-19T06:57:24.462Z,98942.00
2018-10-19T06:59:57.074Z,98937.00
2018-10-19T07:02:29.390Z,98951.00
2018-10-19T07:05:02.150Z,98941.00
2018-10-19T07:07:38.834Z,98940.00
2018-10-19T07:10:12.135Z,98949.00
2018-10-19T07:12:44.550Z,98946.00
2018-10-19T07:15:17.639Z,98949.00
2018-10-19T07:17:49.754Z,98947.00
2018-10-19T07:20:22.096Z,98953.00
2018-10-19T07:22:54.445Z,98943.00
2018-10-19T07:25:26.743Z,98941.00
2018-10-19T07:30:35.010Z,98938.00
2018-10-19T07:33:07.441Z,98936.00
2018-10-19T07:35:39.710Z,98955.00
2018-10-19T07:38:12.737Z,98963.00
2018-10-19T07:40:44.878Z,98957.00
2018-10-19T07:43:17.380Z,98956.00
2018-10-19T07:45:49.605Z,98957.00
2018-10-19T07:48:22.118Z,98954.00
2018-10-19T07:50:57.506Z,98957.00
2018-10-19T07:53:29.959Z,98960.00
2018-10-19T07:56:02.627Z,98959.00
2018-10-19T07:58:34.856Z,98971.00
2018-10-19T08:01:07.014Z,98970.00
2018-10-19T08:03:39.084Z,98969.00
2018-10-19T08:06:11.570Z,98978.00
2018-10-19T08:08:43.803Z,98959.00
2018-10-19T08:11:16.099Z,98962.00
2018-10-19T08:13:55.653Z,98961.00
2018-10-19T08:16:27.840Z,98962.00
2018-10-19T08:18:59.906Z,98965.00
2018-10-19T08:21:32.050Z,98972.00
2018-10-19T08:24:05.074Z,98979.00
2018-10-19T08:26:37.407Z,98983.00
2018-10-19T08:29:09.529Z,98987.00
2018-10-19T08:31:41.799Z,98990.00
2018-10-19T08:36:49.831Z,98996.00
2018-10-19T08:39:21.940Z,98994.00
2018-10-19T08:41:54.178Z,98993.00
2018-10-19T08:44:26.578Z,98997.00
2018-10-19T08:46:59.585Z,99000.00
2018-10-19T08:49:31.665Z,99000.00
2018-10-19T08:52:03.739Z,98995.00
2018-10-19T08:54:36.569Z,98991.00
2018-10-19T08:57:09.174Z,98998.00
2018-10-19T08:59:41.186Z,99001.00
2018-10-19T09:02:13.478Z,99008.00
2018-10-19T09:04:46.034Z,99003.00
2018-10-19T09:07:18.315Z,99004.00
2018-10-19T09:09:51.512Z,98999.00
2018-10-19T09:12:23.775Z,99000.00
2018-10-19T09:15:02.782Z,98985.00
2018-10-19T09:17:35.138Z,98994.00
2018-10-19T09:20:08.202Z,98998.00
2018-10-19T09:22:40.538Z,98999.00
2018-10-19T09:25:13.330Z,99010.00
2018-10-19T09:27:45.721Z,99007.00
2018-10-19T09:30:18.101Z,98998.00
2018-10-19T09:32:50.375Z,99007.00
2018-10-19T09:35:22.453Z,99004.00
2018-10-19T09:37:54.750Z,99004.00
2018-10-19T09:40:27.074Z,99009.00
2018-10-19T09:42:59.282Z,99012.00
2018-10-19T09:45:31.392Z,99013.00
2018-10-19T09:48:04.225Z,99009.00
2018-10-19T09:50:36.551Z,99010.00
2018-10-19T09:53:08.646Z,99006.00
2018-10-19T09:55:40.589Z,99002.00
2018-10-19T09:58:12.890Z,98998.00
2018-10-19T10:00:49.490Z,98993.00
2018-10-19T10:03:23.906Z,98988.00
2018-10-19T10:05:56.070Z,98996.00
2018-10-19T10:08:28.055Z,98991.00
2018-10-19T10:10:59.707Z,98993.00
2018-10-19T10:13:31.587Z,98988.00
2018-10-19T10:16:03.339Z,98983.00
2018-10-19T10:18:34.927Z,98979.00
2018-10-19T10:21:07.305Z,98978.00
2018-10-19T10:23:38.856Z,98978.00
2018-10-19T10:26:11.256Z,98979.00
2018-10-19T10:28:43.117Z,98977.00
2018-10-19T10:31:14.936Z,98974.00
2018-10-19T10:33:46.903Z,98975.00
2018-10-19T10:36:18.489Z,98981.00
2018-10-19T10:38:50.474Z,98976.00
2018-10-19T10:41:21.849Z,98978.00
2018-10-19T10:43:54.536Z,98980.00
2018-10-19T10:46:26.281Z,98978.00
2018-10-19T10:48:57.927Z,98978.00
2018-10-19T10:54:05.947Z,98975.00
2018-10-19T10:56:41.755Z,98972.00
2018-10-19T10:59:13.518Z,98972.00
2018-10-19T11:01:46.050Z,98972.00
2018-10-19T11:06:53.734Z,98980.00
2018-10-19T11:09:25.619Z,98974.00
2018-10-19T11:11:58.305Z,98966.00
2018-10-19T11:14:30.073Z,98962.00
2018-10-19T11:17:01.778Z,98963.00
2018-10-19T11:19:33.452Z,98967.00
2018-10-19T11:22:06.835Z,98959.00
2018-10-19T11:24:38.567Z,98961.00
2018-10-19T11:27:10.362Z,98964.00
2018-10-19T11:29:42.041Z,98957.00
2018-10-19T11:34:49.691Z,98956.00
2018-10-19T11:37:21.472Z,98958.00
2018-10-19T11:40:26.009Z,98958.00
2018-10-19T11:42:58.754Z,98960.00
2018-10-19T11:45:32.448Z,98958.00
2018-10-19T11:48:04.069Z,98952.00
2018-10-19T11:50:35.933Z,98952.00
2018-10-19T11:53:07.469Z,98951.00
2018-10-19T11:55:39.311Z,98945.00
2018-10-19T11:58:11.109Z,98954.00
2018-10-19T12:00:42.878Z,98946.00
2018-10-19T12:03:15.424Z,98946.00
2018-10-19T12:05:48.092Z,98946.00
2018-10-19T12:08:20.059Z,98945.00
2018-10-19T12:10:52.251Z,98944.00
2018-10-19T12:13:24.327Z,98943.00
2018-10-19T12:15:55.984Z,98948.00
2018-10-19T12:18:27.783Z,98944.00
2018-10-19T12:20:59.867Z,98947.00
2018-10-19T12:23:31.836Z,98945.00
2018-10-19T12:26:04.983Z,98942.00
2018-10-19T12:28:36.877Z,98945.00
2018-10-19T12:33:44.186Z,98950.00
2018-10-19T12:36:15.607Z,98947.00
2018-10-19T12:38:49.341Z,98950.00
2018-10-19T12:41:21.785Z,98946.00
2018-10-19T12:43:53.516Z,98946.00
2018-10-19T12:46:43.564Z,98939.00
2018-10-19T12:49:19.886Z,98940.00
2018-10-19T12:54:28.309Z,98948.00
2018-10-19T12:57:00.581Z,98957.00
2018-10-19T12:59:32.384Z,98960.00
2018-10-19T13:02:04.568Z,98956.00
2018-10-19T13:04:36.785Z,98945.00
2018-10-19T13:07:09.079Z,98952.00
2018-10-19T13:09:40.855Z,98956.00
2018-10-19T13:12:12.811Z,98941.00
2018-10-19T13:14:45.443Z,98947.00
2018-10-19T13:17:18.676Z,98941.00
2018-10-19T13:19:50.323Z,98942.00
2018-10-19T13:22:22.396Z,98939.00
2018-10-19T13:24:53.980Z,98939.00
2018-10-19T13:27:25.882Z,98944.00
2018-10-19T13:29:57.621Z,98944.00
2018-10-19T13:32:29.204Z,98945.00
2018-10-19T13:35:00.922Z,98944.00
2018-10-19T13:37:32.355Z,98940.00
2018-10-19T13:40:05.432Z,98938.00
2018-10-19T13:42:37.719Z,98931.00
2018-10-19T13:45:10.287Z,98930.00
2018-10-19T13:47:42.009Z,98928.00
2018-10-19T13:50:13.961Z,98924.00
2018-10-19T13:52:45.528Z,98923.00
2018-10-19T13:55:19.883Z,98932.00
2018-10-19T13:57:51.982Z,98945.00
2018-10-19T14:00:23.912Z,98934.00
2018-10-19T14:02:57.256Z,98932.00
2018-10-19T14:05:32.638Z,98934.00
2018-10-19T14:08:04.050Z,98930.00
2018-10-19T14:10:35.981Z,98925.00
2018-10-19T14:13:07.849Z,98930.00
2018-10-19T14:15:39.940Z,98936.00
2018-10-19T14:18:11.902Z,98936.00
2018-10-19T14:20:43.864Z,98934.00
2018-10-19T14:23:15.770Z,98938.00
2018-10-19T14:25:47.345Z,98939.00
2018-10-19T14:28:19.334Z,98939.00
2018-10-19T14:30:51.653Z,98943.00
2018-10-19T14:33:23.606Z,98942.00
2018-10-19T14:35:55.356Z,98939.00
2018-10-19T14:38:27.775Z,98940.00
2018-10-19T14:41:00.001Z,98944.00
2018-10-19T14:43:32.768Z,98945.00
2018-10-19T14:46:11.302Z,98946.00
2018-10-19T14:48:43.549Z,98950.00
2018-10-19T14:51:15.436Z,98956.00
2018-10-19T14:53:47.065Z,98949.00
2018-10-19T14:56:19.558Z,98953.00
2018-10-19T14:58:51.517Z,98959.00
2018-10-19T15:01:23.461Z,98965.00
2018-10-19T15:03:55.160Z,98965.00
2018-10-19T15:06:27.678Z,98970.00
2018-10-19T15:08:59.544Z,98970.00
2018-10-19T15:11:32.355Z,98982.00
2018-10-19T15:14:04.309Z,98971.00
2018-10-19T15:16:36.305Z,98979.00
2018-10-19T15:19:08.714Z,98976.00
2018-10-19T15:21:40.560Z,98976.00
2018-10-19T15:24:12.612Z,98975.00
2018-10-19T15:26:45.062Z,98976.00
2018-10-19T15:29:16.889Z,98984.00
2018-10-19T15:31:48.516Z,98983.00
2018-10-19T15:34:20.307Z,98989.00
2018-10-19T15:36:52.132Z,98996.00
2018-10-19T15:39:23.856Z,99007.00
2018-10-19T15:41:55.964Z,99010.00
2018-10-19T15:44:28.291Z,99004.00
2018-10-19T15:47:02.466Z,99005.00
2018-10-19T15:49:34.545Z,99010.00
2018-10-19T15:52:06.613Z,99013.00
2018-10-19T15:54:38.510Z,99021.00
2018-10-19T15:57:10.286Z,99029.00
2018-10-19T15:59:42.266Z,99038.00
2018-10-19T16:02:14.974Z,99040.00
2018-10-19T16:04:47.311Z,99039.00
2018-10-19T16:07:19.477Z,99041.00
2018-10-19T16:09:51.263Z,99048.00
2018-10-19T16:12:22.993Z,99052.00
2018-10-19T16:14:54.519Z,99062.00
2018-10-19T16:17:26.227Z,99055.00
2018-10-19T16:19:57.601Z,99062.00
2018-10-19T16:22:29.464Z,99063.00
2018-10-19T16:25:01.232Z,99069.00
2018-10-19T16:27:32.978Z,99069.00
2018-10-19T16:30:04.783Z,99071.00
2018-10-19T16:32:36.668Z,99078.00
2018-10-19T16:35:08.898Z,99072.00
2018-10-19T16:37:40.674Z,99079.00
2018-10-19T16:40:12.894Z,99079.00
2018-10-19T16:42:45.112Z,99081.00
2018-10-19T16:45:17.669Z,99090.00
2018-10-19T16:47:49.859Z,99094.00
2018-10-19T16:50:21.895Z,99097.00
2018-10-19T16:52:53.560Z,99103.00
2018-10-19T16:55:25.400Z,99111.00
2018-10-19T16:57:57.155Z,99110.00
2018-10-19T17:00:29.524Z,99113.00
2018-10-19T17:03:01.495Z,99114.00
2018-10-19T17:05:33.938Z,99115.00
2018-10-19T17:08:10.614Z,99120.00
2018-10-19T17:10:43.963Z,99116.00
2018-10-19T17:13:17.468Z,99120.00
2018-10-19T17:15:49.521Z,99121.00
2018-10-19T17:18:21.431Z,99127.00
2018-10-19T17:20:53.732Z,99126.00
2018-10-19T17:23:26.035Z,99114.00
2018-10-19T17:25:57.974Z,99121.00
2018-10-19T17:31:05.745Z,99121.00
2018-10-19T17:33:38.159Z,99118.00
2018-10-19T17:36:10.266Z,99117.00
2018-10-19T17:38:42.371Z,99115.00
2018-10-19T17:41:14.231Z,99119.00
2018-10-19T17:43:46.661Z,99120.00
2018-10-19T17:46:19.160Z,99128.00
2018-10-19T17:48:51.214Z,99131.00
2018-10-19T17:51:22.702Z,99126.00
2018-10-19T17:53:55.413Z,99130.00
2018-10-19T17:56:27.299Z,99134.00
2018-10-19T17:59:01.905Z,99133.00
2018-10-19T18:01:33.837Z,99136.00
2018-10-19T18:04:07.811Z,99131.00
2018-10-19T18:06:40.049Z,99138.00
2018-10-19T18:09:13.046Z,99136.00
2018-10-19T18:11:45.596Z,99138.00
2018-10-19T18:14:17.438Z,99141.00
2018-10-19T18:16:49.561Z,99143.00
2018-10-19T18:19:21.438Z,99146.00
2018-10-19T18:21:54.162Z,99151.00
2018-10-19T18:24:25.733Z,99148.00
2018-10-19T18:26:57.720Z,99156.00
2018-10-19T18:29:30.352Z,99154.00
2018-10-19T18:32:02.157Z,99162.00
2018-10-19T18:34:34.167Z,99160.00
2018-10-19T18:37:07.648Z,99166.00
2018-10-19T18:39:39.165Z,99170.00
2018-10-19T18:42:10.977Z,99172.00
2018-10-19T18:44:42.764Z,99178.00
2018-10-19T18:47:14.487Z,99179.00
2018-10-19T18:49:46.442Z,99170.00
2018-10-19T18:52:18.378Z,99170.00
2018-10-19T18:54:51.519Z,99177.00
2018-10-19T18:57:23.534Z,99184.00
2018-10-19T18:59:55.442Z,99184.00
2018-10-19T19:02:27.583Z,99188.00
2018-10-19T19:04:59.785Z,99190.00
2018-10-19T19:07:31.534Z,99187.00
2018-10-19T19:10:08.433Z,99192.00
2018-10-19T19:12:40.494Z,99186.00
2018-10-19T19:15:12.495Z,99194.00
2018-10-19T19:17:43.994Z,99189.00
2018-10-19T19:20:20.870Z,99188.00
2018-10-19T19:22:53.360Z,99195.00
2018-10-19T19:25:30.500Z,99182.00
2018-10-19T19:28:03.059Z,99189.00
2018-10-19T19:30:35.157Z,99193.00
2018-10-19T19:33:12.297Z,99200.00
2018-10-19T19:35:44.839Z,99198.00
2018-10-19T19:38:17.623Z,99202.00
2018-10-19T19:43:33.042Z,99207.00
2018-10-19T19:46:05.122Z,99198.00
2018-10-19T19:48:42.108Z,99198.00
2018-10-19T19:51:14.103Z,99202.00
2018-10-19T19:53:46.019Z,99210.00
2018-10-19T19:56:18.387Z,99212.00
2018-10-19T20:01:26.116Z,99209.00
2018-10-19T20:03:58.670Z,99212.00
2018-10-19T20:06:30.910Z,99215.00
2018-10-19T20:09:03.272Z,99208.00
2018-10-19T20:11:35.700Z,99206.00
2018-10-19T20:14:07.567Z,99205.00
2018-10-19T20:16:40.446Z,99210.00
2018-10-19T20:19:12.705Z,99222.00
2018-10-19T20:21:44.821Z,99213.00
2018-10-19T20:24:16.328Z,99220.00
2018-10-19T20:26:48.220Z,99218.00
2018-10-19T20:29:21.002Z,99226.00
2018-10-19T20:31:53.447Z,99212.00
2018-10-19T20:34:25.443Z,99214.00
2018-10-19T20:36:57.655Z,99223.00
2018-10-19T20:39:30.406Z,99213.00
2018-10-19T20:42:02.040Z,99213.00
2018-10-19T20:44:34.294Z,99218.00
2018-10-19T20:47:07.060Z,99222.00
2018-10-19T20:49:38.871Z,99217.00
2018-10-19T20:52:10.880Z,99217.00
2018-10-19T20:54:42.900Z,99217.00
2018-10-19T20:57:14.977Z,99221.00
2018-10-19T20:59:46.394Z,99222.00
2018-10-19T21:02:18.273Z,99222.00
2018-10-19T21:04:50.081Z,99229.00
2018-10-19T21:07:22.199Z,99229.00
2018-10-19T21:09:53.904Z,99227.00
2018-10-19T21:12:25.700Z,99229.00
2018-10-19T21:14:57.909Z,99229.00
2018-10-19T21:17:30.631Z,99234.00
2018-10-19T21:20:02.629Z,99231.00
2018-10-19T21:22:35.041Z,99226.00
2018-10-19T21:25:08.314Z,99226.00
2018-10-19T21:27:40.228Z,99226.00
2018-10-19T21:30:13.438Z,99234.00
2018-10-19T21:32:44.993Z,99225.00
2018-10-19T21:35:16.894Z,99231.00
2018-10-19T21:37:48.595Z,99239.00
2018-10-19T21:40:20.525Z,99235.00
2018-10-19T21:42:52.316Z,99237.00
2018-10-19T21:45:24.576Z,99237.00
2018-10-19T21:47:57.320Z,99235.00
2018-10-19T21:53:05.232Z,99244.00
2018-10-19T21:55:37.425Z,99241.00
2018-10-19T21:58:12.121Z,99239.00
2018-10-19T22:03:19.677Z,99237.00
2018-10-19T22:05:51.484Z,99238.00
2018-10-19T22:08:23.454Z,99236.00
2018-10-19T22:10:55.706Z,99244.00
2018-10-19T22:13:27.619Z,99245.00
2018-10-19T22:15:59.336Z,99243.00
2018-10-19T22:18:31.230Z,99236.00
2018-10-19T22:21:03.259Z,99233.00
2018-10-19T22:23:35.101Z,99238.00
2018-10-19T22:26:08.364Z,99243.00
2018-10-19T22:28:40.161Z,99243.00
2018-10-19T22:31:12.525Z,99239.00
2018-10-19T22:33:45.647Z,99241.00
2018-10-19T22:36:17.730Z,99241.00
2018-10-19T22:38:49.634Z,99243.00
2018-10-19T22:41:21.900Z,99237.00
2018-10-19T22:43:54.370Z,99241.00
2018-10-19T22:46:27.040Z,99240.00
2018-10-19T22:48:58.844Z,99239.00
2018-10-19T22:51:30.680Z,99238.00
2018-10-19T22:54:03.249Z,99239.00
2018-10-19T22:56:35.817Z,99235.00
2018-10-19T22:59:08.924Z,99234.00
2018-10-19T23:01:40.664Z,99234.00
2018-10-19T23:04:12.512Z,99238.00
2018-10-19T23:06:44.689Z,99239.00
2018-10-19T23:09:16.581Z,99230.00
2018-10-19T23:11:48.432Z,99229.00
2018-10-19T23:14:20.432Z,99226.00
2018-10-19T23:16:52.361Z,99229.00
2018-10-19T23:19:24.399Z,99226.00
2018-10-19T23:21:56.843Z,99229.00
2018-10-19T23:24:29.698Z,99234.00
2018-10-19T23:27:02.516Z,99237.00
2018-10-19T23:29:34.390Z,99229.00
2018-10-19T23:32:07.036Z,99230.00
2018-10-19T23:34:39.357Z,99227.00
2018-10-19T23:37:11.114Z,99229.00
2018-10-19T23:39:43.180Z,99231.00
2018-10-19T23:42:15.926Z,99224.00
2018-10-19T23:44:48.112Z,99227.00
2018-10-19T23:47:24.076Z,99227.00
2018-10-19T23:49:56.592Z,99223.00
2018-10-19T23:52:29.926Z,99222.00
2018-10-19T23:55:02.134Z,99219.00
2018-10-19T23:57:33.945Z,99219.00
